• Join FlightAware (Why Join?)
  • Login
  • US Flag 
02:54AM EDT


 

Airport Tracker/Info


-or-


 

Live Flight TrackerFlight Track Log ✈ N618ST ✈ 28-Apr-2012 ✈ KMDT - KBWI

Flight Track Log - Related Links

Times and Time Zones

All times are in EDT time to prevent confusion due to time zone crossing. See the N618ST flight status page for this flight to view local times or setup timezone preferences in your user account.

Time Position Orientation Groundspeed Altitude Reporting Facility
EDT Latitude Longitude Course Direction KTS MPH feet Rate Location/Type
11:28PM 40.2215 -76.8596 171° South  Level FlightAware Approximate
11:29PM 40.2500 -76.9317 163° South  Level FlightAware Approximate
11:30PM 40.2743 -77.0067 157° South  Level FlightAware Approximate
11:31PM 40.2126 -76.9865 156° South  Level FlightAware Approximate
11:32PM 40.1509 -76.9663 154° Southeast  Level FlightAware Approximate
11:33PM 40.0892 -76.9462 151° Southeast  Level FlightAware Approximate
11:34PM 40.0275 -76.9262 146° Southeast  Level FlightAware Approximate
11:35PM 39.9658 -76.9062 136° Southeast  Level FlightAware Approximate
11:36PM 39.8667 -76.7833 180° South 186 214 6,000  Level Potomac TRACON
11:37PM 39.8167 -76.7833 166° South 186 214 6,000  Level Potomac TRACON
11:38PM 39.7667 -76.7667 180° South 186 214 6,000  Level Potomac TRACON
11:39PM 39.7167 -76.7667 166° South 190 219 6,000  Level Potomac TRACON
11:40PM 39.6667 -76.7500 159° South 188 216 6,000 -300 Level Potomac TRACON
11:41PM 39.6333 -76.7333 142° Southeast 196 226 5,400 -780 Descending Potomac TRACON
11:42PM 39.5833 -76.6833 134° Southeast 204 235 4,600 -720 Descending Potomac TRACON
11:43PM 39.5333 -76.6167 142° Southeast 180 207 4,000 -300 Descending Potomac TRACON
11:44PM 39.5000 -76.5833 142° Southeast 176 203 4,000  Level Potomac TRACON
11:45PM 39.4667 -76.5500 169° South 184 212 4,000  Level Potomac TRACON
11:46PM 39.4000 -76.5333 166° South 195 224 4,000  Level Potomac TRACON
11:47PM 39.3500 -76.5167 180° South 194 223 4,000  Level Potomac TRACON
11:48PM 39.3000 -76.5167 166° South 184 212 4,000  Level Potomac TRACON
11:49PM 39.2500 -76.5000 166° South 185 213 4,000 -60 Level Potomac TRACON
11:50PM 39.2000 -76.4833 166° South 189 217 3,900 -540 Descending Potomac TRACON
11:51PM 39.1500 -76.4667 180° South 186 214 3,000 -960 Descending Potomac TRACON
11:52PM 39.1000 -76.4667 201° Southwest 169 194 2,000 -480 Descending Potomac TRACON
11:53PM 39.0667 -76.4833 270° West 133 153 2,000  Level Potomac TRACON
11:54PM 39.0667 -76.5333 303° West 131 151 2,000  Level Potomac TRACON
11:55PM 39.0833 -76.5667 322° Northwest 127 146 2,000  Level Potomac TRACON
11:56PM 39.1167 -76.6000 339° North 122 140 2,000 -300 Level Potomac TRACON
11:57PM 39.1500 -76.6167 339° North 139 160 1,500 -540 Descending Potomac TRACON